createdAt,value
2023-04-15T00:00:19.335Z,100177.44
2023-04-15T00:03:05.355Z,100182.41
2023-04-15T00:05:49.078Z,100167.56
2023-04-15T00:08:32.664Z,100169.81
2023-04-15T00:11:17.406Z,100164.69
2023-04-15T00:14:01.202Z,100173.50
2023-04-15T00:16:44.860Z,100167.09
2023-04-15T00:19:28.446Z,100161.78
2023-04-15T00:22:12.976Z,100167.84
2023-04-15T00:25:07.564Z,100161.00
2023-04-15T00:27:53.961Z,100162.75
2023-04-15T00:30:37.599Z,100165.16
2023-04-15T00:33:26.550Z,100154.94
2023-04-15T00:36:21.012Z,100160.25
2023-04-15T00:39:13.300Z,100158.81
2023-04-15T00:42:01.114Z,100172.06
2023-04-15T00:44:44.736Z,100169.22
2023-04-15T00:47:33.824Z,100165.84
2023-04-15T00:50:17.555Z,100165.97
2023-04-15T00:53:01.391Z,100152.72
2023-04-15T00:55:45.541Z,100153.50
2023-04-15T00:58:29.441Z,100153.19
2023-04-15T01:01:13.128Z,100147.59
2023-04-15T01:04:00.528Z,100148.53
2023-04-15T01:06:44.337Z,100146.31
2023-04-15T01:09:27.845Z,100149.34
2023-04-15T01:12:15.595Z,100148.06
2023-04-15T01:15:00.510Z,100141.69
2023-04-15T01:17:44.100Z,100146.78
2023-04-15T01:20:28.972Z,100142.97
2023-04-15T01:23:13.414Z,100135.16
2023-04-15T01:25:59.374Z,100142.00
2023-04-15T01:28:43.618Z,100135.59
2023-04-15T01:31:27.512Z,100132.22
2023-04-15T01:34:11.092Z,100129.47
2023-04-15T01:37:13.205Z,100130.25
2023-04-15T01:39:58.930Z,100126.44
2023-04-15T01:42:46.631Z,100133.66
2023-04-15T01:45:34.090Z,100129.97
2023-04-15T01:48:23.844Z,100133.81
2023-04-15T01:51:08.834Z,100134.75
2023-04-15T01:53:53.957Z,100135.03
2023-04-15T01:56:39.114Z,100126.97
2023-04-15T01:59:24.549Z,100123.09
2023-04-15T02:02:09.368Z,100122.72
2023-04-15T02:04:54.645Z,100127.25
2023-04-15T02:07:39.459Z,100123.44
2023-04-15T02:10:24.215Z,100125.59
2023-04-15T02:13:10.972Z,100117.03
2023-04-15T02:16:00.716Z,100117.63
2023-04-15T02:18:47.302Z,100113.59
2023-04-15T02:21:35.158Z,100115.63
2023-04-15T02:24:24.021Z,100103.47
2023-04-15T02:27:11.497Z,100117.78
2023-04-15T02:29:58.134Z,100108.78
2023-04-15T02:32:45.417Z,100107.63
2023-04-15T02:35:30.450Z,100109.59
2023-04-15T02:38:18.016Z,100111.53
2023-04-15T02:41:05.243Z,100104.16
2023-04-15T02:43:54.105Z,100111.59
2023-04-15T02:46:44.133Z,100108.16
2023-04-15T02:49:32.754Z,100113.41
2023-04-15T02:52:19.697Z,100109.28
2023-04-15T02:55:09.104Z,100110.72
2023-04-15T02:57:55.242Z,100114.25
2023-04-15T03:00:40.038Z,100112.16
2023-04-15T03:03:29.505Z,100110.97
2023-04-15T03:06:16.233Z,100114.88
2023-04-15T03:09:02.700Z,100113.69
2023-04-15T03:11:53.666Z,100116.38
2023-04-15T03:14:39.045Z,100119.56
2023-04-15T03:17:23.907Z,100119.03
2023-04-15T03:20:09.730Z,100118.09
2023-04-15T03:22:54.548Z,100121.16
2023-04-15T03:25:41.991Z,100115.13
2023-04-15T03:28:26.755Z,100108.94
2023-04-15T03:31:15.571Z,100116.66
2023-04-15T03:34:00.501Z,100113.16
2023-04-15T03:36:45.298Z,100104.31
2023-04-15T03:39:30.033Z,100113.78
2023-04-15T03:42:14.832Z,100107.38
2023-04-15T03:44:59.685Z,100105.53
2023-04-15T03:47:44.476Z,100105.56
2023-04-15T03:50:29.278Z,100118.44
2023-04-15T03:53:14.223Z,100108.63
2023-04-15T03:55:58.982Z,100113.34
2023-04-15T03:58:43.828Z,100111.06
2023-04-15T04:01:28.604Z,100111.41
2023-04-15T04:04:13.584Z,100119.56
2023-04-15T04:06:58.464Z,100111.28
2023-04-15T04:09:43.279Z,100110.38
2023-04-15T04:12:28.046Z,100114.69
2023-04-15T04:15:12.863Z,100112.16
2023-04-15T04:17:58.001Z,100119.78
2023-04-15T04:20:42.968Z,100118.44
2023-04-15T04:23:27.808Z,100115.00
2023-04-15T04:26:12.636Z,100116.13
2023-04-15T04:28:57.532Z,100117.59
2023-04-15T06:15:26.792Z,100139.88
2023-04-15T06:18:15.572Z,100135.81
2023-04-15T06:21:01.213Z,100141.25
2023-04-15T06:23:46.467Z,100139.44
2023-04-15T06:26:31.454Z,100149.31
2023-04-15T06:29:16.464Z,100154.53
2023-04-15T06:32:01.771Z,100160.84
2023-04-15T06:34:46.647Z,100165.47
2023-04-15T06:37:31.990Z,100166.38
2023-04-15T06:40:17.247Z,100168.97
2023-04-15T06:43:02.324Z,100167.28
2023-04-15T06:45:47.405Z,100170.47
2023-04-15T06:48:32.389Z,100171.97
2023-04-15T06:51:17.286Z,100170.56
2023-04-15T06:54:02.771Z,100170.31
2023-04-15T06:56:48.146Z,100178.00
2023-04-15T06:59:33.004Z,100178.41
2023-04-15T07:02:18.696Z,100182.84
2023-04-15T07:05:04.859Z,100185.09
2023-04-15T07:07:50.411Z,100189.41
2023-04-15T07:10:35.299Z,100198.03
2023-04-15T07:13:20.134Z,100186.25
2023-04-15T07:16:05.247Z,100200.91
2023-04-15T07:18:50.050Z,100197.28
2023-04-15T07:21:35.581Z,100206.50
2023-04-15T07:24:20.855Z,100202.25
2023-04-15T07:27:05.739Z,100204.94
2023-04-15T07:29:52.205Z,100201.53
2023-04-15T07:32:37.237Z,100212.31
2023-04-15T07:35:22.405Z,100209.22
2023-04-15T07:38:07.437Z,100212.78
2023-04-15T07:40:52.905Z,100214.81
2023-04-15T07:43:37.929Z,100215.50
2023-04-15T07:46:25.095Z,100215.50
2023-04-15T07:49:09.954Z,100214.47
2023-04-15T07:52:01.699Z,100216.97
2023-04-15T07:54:47.078Z,100224.38
2023-04-15T07:57:31.893Z,100224.00
2023-04-15T08:00:17.528Z,100210.47
2023-04-15T08:03:03.363Z,100227.44
2023-04-15T08:05:48.821Z,100228.56
2023-04-15T08:08:33.849Z,100227.97
2023-04-15T08:11:18.888Z,100229.25
2023-04-15T08:14:03.788Z,100232.41
2023-04-15T08:16:48.744Z,100235.38
2023-04-15T08:19:33.846Z,100227.44
2023-04-15T08:22:19.687Z,100231.06
2023-04-15T08:25:06.464Z,100240.72
2023-04-15T08:27:51.695Z,100241.75
2023-04-15T08:30:36.982Z,100243.47
2023-04-15T08:33:22.117Z,100240.94
2023-04-15T08:36:07.832Z,100243.66
2023-04-15T08:38:52.686Z,100241.19
2023-04-15T08:41:48.046Z,100242.97
2023-04-15T08:44:37.093Z,100240.94
2023-04-15T08:47:24.261Z,100241.75
2023-04-15T08:50:11.237Z,100253.44
2023-04-15T08:52:56.530Z,100255.84
2023-04-15T08:55:47.062Z,100256.75
2023-04-15T08:58:33.014Z,100242.97
2023-04-15T09:01:18.605Z,100243.81
2023-04-15T09:04:06.816Z,100252.88
2023-04-15T09:06:52.395Z,100253.78
2023-04-15T09:09:40.324Z,100256.97
2023-04-15T09:12:25.151Z,100255.94
2023-04-15T09:15:16.533Z,100249.72
2023-04-15T09:18:01.497Z,100253.22
2023-04-15T09:20:46.448Z,100268.56
2023-04-15T09:23:32.228Z,100268.38
2023-04-15T09:26:17.232Z,100270.28
2023-04-15T09:29:10.575Z,100274.16
2023-04-15T09:31:55.862Z,100274.25
2023-04-15T09:34:40.778Z,100280.63
2023-04-15T09:37:36.763Z,100284.59
2023-04-15T09:40:40.391Z,100292.09
2023-04-15T09:43:40.590Z,100288.59
2023-04-15T09:46:45.382Z,100288.47
2023-04-15T09:49:30.269Z,100295.31
2023-04-15T09:52:15.016Z,100298.91
2023-04-15T09:55:01.137Z,100296.88
2023-04-15T09:57:50.102Z,100296.88
2023-04-15T10:00:36.205Z,100301.97
2023-04-15T10:03:31.898Z,100302.69
2023-04-15T10:06:20.052Z,100310.66
2023-04-15T10:09:07.608Z,100309.28
2023-04-15T10:11:52.494Z,100308.81
2023-04-15T10:14:40.959Z,100313.16
2023-04-15T10:17:31.719Z,100311.81
2023-04-15T10:20:19.632Z,100314.28
2023-04-15T10:23:06.762Z,100318.72
2023-04-15T10:25:54.707Z,100317.69
2023-04-15T10:28:39.696Z,100320.88
2023-04-15T10:31:24.843Z,100323.25
2023-04-15T10:34:11.401Z,100321.13
2023-04-15T10:37:01.682Z,100327.91
2023-04-15T10:39:46.557Z,100318.16
2023-04-15T10:42:35.745Z,100326.56
2023-04-15T10:45:20.634Z,100328.03
2023-04-15T10:48:09.205Z,100331.97
2023-04-15T10:50:58.639Z,100335.56
2023-04-15T10:53:44.507Z,100338.97
2023-04-15T10:56:31.195Z,100333.97
2023-04-15T10:59:16.973Z,100341.22
2023-04-15T11:02:06.093Z,100343.88
2023-04-15T11:04:58.858Z,100337.50
2023-04-15T11:07:49.465Z,100345.78
2023-04-15T11:10:34.181Z,100345.81
2023-04-15T11:13:22.876Z,100355.00
2023-04-15T11:16:07.871Z,100357.69
2023-04-15T11:18:56.995Z,100355.91
2023-04-15T11:21:42.322Z,100361.22
2023-04-15T11:24:27.403Z,100360.94
2023-04-15T11:27:22.358Z,100361.22
2023-04-15T11:30:23.025Z,100371.91
2023-04-15T11:33:12.612Z,100369.66
2023-04-15T11:35:57.530Z,100364.91
2023-04-15T11:38:47.781Z,100378.09
2023-04-15T11:41:32.660Z,100376.16
2023-04-15T11:44:18.638Z,100383.31
2023-04-15T11:47:23.989Z,100393.63
2023-04-15T11:50:24.554Z,100394.44
2023-04-15T11:53:12.336Z,100396.16
2023-04-15T11:55:55.883Z,100394.91
2023-04-15T11:58:39.916Z,100394.41
2023-04-15T12:01:36.559Z,100402.91
2023-04-15T12:04:25.125Z,100395.97
2023-04-15T12:07:09.236Z,100409.38
2023-04-15T12:09:58.014Z,100410.63
2023-04-15T12:12:42.354Z,100411.78
2023-04-15T12:15:26.204Z,100417.03
2023-04-15T12:18:18.872Z,100408.84
2023-04-15T12:21:14.699Z,100423.38
2023-04-15T12:24:02.443Z,100414.28
2023-04-15T12:26:53.675Z,100415.75
2023-04-15T12:29:40.320Z,100412.59
2023-04-15T12:32:23.881Z,100422.94
2023-04-15T12:35:08.037Z,100430.09
2023-04-15T12:37:53.126Z,100428.88
2023-04-15T12:40:36.773Z,100419.53
2023-04-15T12:43:20.392Z,100430.69
2023-04-15T12:46:05.027Z,100423.72
2023-04-15T12:48:48.698Z,100431.47
2023-04-15T12:51:32.482Z,100433.53
2023-04-15T12:54:17.742Z,100445.69
2023-04-15T12:57:01.366Z,100441.72
2023-04-15T12:59:45.005Z,100447.09
2023-04-15T13:02:29.295Z,100445.72
2023-04-15T13:05:14.879Z,100449.94
2023-04-15T13:07:58.465Z,100449.22
2023-04-15T13:10:42.727Z,100455.38
2023-04-15T13:13:26.680Z,100445.03
2023-04-15T13:16:10.478Z,100458.47
2023-04-15T13:18:54.032Z,100453.56
2023-04-15T13:21:37.582Z,100452.22
2023-04-15T13:24:21.128Z,100455.59
2023-04-15T13:27:04.940Z,100460.75
2023-04-15T13:29:48.518Z,100460.16
2023-04-15T13:32:32.357Z,100457.44
2023-04-15T13:35:16.044Z,100465.97
2023-04-15T13:37:59.628Z,100472.25
2023-04-15T13:40:43.179Z,100468.28
2023-04-15T13:43:27.204Z,100474.16
2023-04-15T13:46:11.317Z,100479.97
2023-04-15T13:48:54.998Z,100475.81
2023-04-15T13:51:38.709Z,100484.31
2023-04-15T13:54:22.262Z,100491.47
2023-04-15T13:57:06.833Z,100491.50
2023-04-15T13:59:50.538Z,100486.09
2023-04-15T14:02:34.562Z,100492.63
2023-04-15T14:05:18.428Z,100495.22
2023-04-15T14:08:02.049Z,100502.31
2023-04-15T14:10:48.597Z,100496.47
2023-04-15T14:13:32.137Z,100507.56
2023-04-15T14:16:15.778Z,100504.50
2023-04-15T14:19:00.031Z,100501.53
2023-04-15T14:21:43.601Z,100503.22
2023-04-15T14:24:27.558Z,100508.44
2023-04-15T14:27:12.581Z,100511.44
2023-04-15T14:29:57.866Z,100516.44
2023-04-15T14:32:41.829Z,100523.16
2023-04-15T14:35:26.861Z,100519.63
2023-04-15T14:38:11.606Z,100532.84
2023-04-15T14:40:55.280Z,100526.66
2023-04-15T14:43:40.273Z,100534.06
2023-04-15T14:46:25.547Z,100538.84
2023-04-15T14:49:09.285Z,100536.63
2023-04-15T14:51:53.017Z,100536.81
2023-04-15T14:54:36.532Z,100537.81
2023-04-15T14:57:20.017Z,100545.16
2023-04-15T15:00:05.861Z,100545.66
2023-04-15T15:02:52.596Z,100542.72
2023-04-15T15:05:36.330Z,100543.28
2023-04-15T15:08:20.088Z,100552.84
2023-04-15T15:11:03.983Z,100563.16
2023-04-15T15:13:48.640Z,100562.41
2023-04-15T15:16:32.470Z,100561.00
2023-04-15T15:19:17.030Z,100561.38
2023-04-15T15:22:00.694Z,100564.50
2023-04-15T15:24:44.240Z,100572.41
2023-04-15T15:27:28.543Z,100577.75
2023-04-15T15:30:12.970Z,100578.53
2023-04-15T15:32:56.556Z,100584.22
2023-04-15T15:35:41.273Z,100582.97
2023-04-15T15:38:26.443Z,100586.13
2023-04-15T15:41:10.005Z,100587.31
2023-04-15T15:43:54.339Z,100587.16
2023-04-15T15:46:37.953Z,100581.09
2023-04-15T15:49:21.761Z,100590.34
2023-04-15T15:52:06.556Z,100594.69
2023-04-15T15:54:50.294Z,100604.88
2023-04-15T15:57:33.943Z,100611.63
2023-04-15T16:00:17.753Z,100616.09
2023-04-15T16:05:48.211Z,100620.53
2023-04-15T16:08:31.826Z,100624.72
2023-04-15T16:11:15.537Z,100621.09
2023-04-15T16:13:59.250Z,100624.28
2023-04-15T16:16:43.000Z,100627.56
2023-04-15T16:19:26.642Z,100622.03
2023-04-15T16:22:10.662Z,100616.75
2023-04-15T16:24:54.251Z,100620.25
2023-04-15T16:30:25.811Z,100636.22
2023-04-15T16:33:10.225Z,100633.38
2023-04-15T16:35:53.942Z,100642.31
2023-04-15T16:38:37.494Z,100640.78
2023-04-15T16:41:21.310Z,100638.22
2023-04-15T16:44:06.689Z,100635.94
2023-04-15T16:46:50.464Z,100645.34
2023-04-15T16:49:35.655Z,100648.88
2023-04-15T16:52:19.188Z,100648.13
2023-04-15T16:55:05.108Z,100645.88
2023-04-15T16:58:01.992Z,100646.13
2023-04-15T17:00:47.026Z,100657.63
2023-04-15T17:03:31.294Z,100653.75
2023-04-15T17:06:16.173Z,100659.19
2023-04-15T17:08:59.686Z,100668.47
2023-04-15T17:11:44.672Z,100665.81
2023-04-15T17:14:29.167Z,100663.38
2023-04-15T17:17:12.768Z,100673.97
2023-04-15T17:19:56.423Z,100674.63
2023-04-15T17:22:40.247Z,100679.16
2023-04-15T17:25:23.951Z,100683.28
2023-04-15T17:28:09.648Z,100685.28
2023-04-15T17:30:53.670Z,100694.56
2023-04-15T17:34:07.229Z,100699.88
2023-04-15T17:36:55.116Z,100708.50
2023-04-15T17:39:58.650Z,100700.09
2023-04-15T17:43:02.264Z,100715.84
2023-04-15T17:46:07.401Z,100717.56
2023-04-15T17:49:10.853Z,100727.38
2023-04-15T17:52:15.004Z,100741.69
2023-04-15T17:55:18.679Z,100742.53
2023-04-15T17:58:22.125Z,100742.59
2023-04-15T18:01:26.132Z,100735.56
2023-04-15T18:04:29.668Z,100739.75
2023-04-15T18:07:33.549Z,100750.34
2023-04-15T18:10:39.787Z,100751.41
2023-04-15T18:13:43.762Z,100758.91
2023-04-15T18:16:48.019Z,100762.91
2023-04-15T18:19:52.561Z,100774.31
2023-04-15T18:22:36.197Z,100780.34
2023-04-15T18:25:19.870Z,100776.53
2023-04-15T18:28:03.949Z,100780.41
2023-04-15T18:30:47.487Z,100794.53
2023-04-15T18:33:31.074Z,100800.31
2023-04-15T18:36:14.697Z,100797.47
2023-04-15T18:38:58.538Z,100799.84
2023-04-15T18:41:42.056Z,100810.09
2023-04-15T18:44:25.679Z,100807.66
2023-04-15T18:47:09.286Z,100813.22
2023-04-15T18:49:52.843Z,100814.97
2023-04-15T18:52:36.606Z,100823.63
2023-04-15T18:55:20.171Z,100822.81
2023-04-15T18:58:06.324Z,100835.97
2023-04-15T19:00:52.875Z,100832.13
2023-04-15T19:03:36.665Z,100837.09
2023-04-15T19:06:20.599Z,100843.16
2023-04-15T19:09:04.556Z,100834.69
2023-04-15T19:11:48.258Z,100848.94
2023-04-15T19:14:31.815Z,100847.66
2023-04-15T19:17:15.798Z,100845.41
2023-04-15T19:19:59.369Z,100853.59
2023-04-15T19:22:43.460Z,100858.59
2023-04-15T19:25:26.962Z,100862.56
2023-04-15T19:28:10.604Z,100874.94
2023-04-15T19:30:55.044Z,100872.22
2023-04-15T19:33:38.914Z,100873.66
2023-04-15T19:36:22.795Z,100870.13
2023-04-15T19:39:06.660Z,100875.25
2023-04-15T19:41:51.111Z,100877.16
2023-04-15T19:44:35.496Z,100882.63
2023-04-15T19:47:19.115Z,100886.94
2023-04-15T19:50:02.980Z,100884.25
2023-04-15T19:52:46.831Z,100887.13
2023-04-15T19:55:30.521Z,100888.88
2023-04-15T19:58:14.059Z,100897.06
2023-04-15T20:00:57.579Z,100890.81
2023-04-15T20:03:41.428Z,100878.75
2023-04-15T20:06:25.239Z,100886.97
2023-04-15T20:09:11.168Z,100884.53
2023-04-15T20:12:09.988Z,100884.88
2023-04-15T20:14:58.653Z,100890.34
2023-04-15T20:17:42.308Z,100893.53
2023-04-15T20:20:26.523Z,100887.75
2023-04-15T20:23:10.497Z,100884.72
2023-04-15T20:25:54.356Z,100901.38
2023-04-15T20:28:37.838Z,100901.25
2023-04-15T20:31:22.498Z,100899.47
2023-04-15T20:34:06.308Z,100904.75
2023-04-15T20:36:49.864Z,100902.34
2023-04-15T20:39:34.593Z,100903.28
2023-04-15T20:42:19.504Z,100909.72
2023-04-15T20:45:03.492Z,100909.25
2023-04-15T20:47:47.250Z,100915.50
2023-04-15T20:50:30.905Z,100916.63
2023-04-15T20:53:14.965Z,100904.91
2023-04-15T20:56:00.368Z,100907.34
2023-04-15T20:58:44.044Z,100907.50
2023-04-15T21:01:30.663Z,100912.28
2023-04-15T21:04:14.270Z,100919.19
2023-04-15T21:06:57.822Z,100921.78
2023-04-15T21:09:43.070Z,100909.25
2023-04-15T21:12:26.597Z,100913.56
2023-04-15T21:15:10.952Z,100923.50
2023-04-15T21:17:54.675Z,100921.09
2023-04-15T21:20:38.384Z,100932.50
2023-04-15T21:23:22.508Z,100937.13
2023-04-15T21:26:06.167Z,100935.06
2023-04-15T21:28:49.910Z,100934.41
2023-04-15T21:31:33.542Z,100936.50
2023-04-15T21:34:17.779Z,100940.88
2023-04-15T21:37:01.786Z,100940.22
2023-04-15T21:39:45.678Z,100930.13
2023-04-15T21:42:30.330Z,100947.13
2023-04-15T21:45:14.059Z,100946.50
2023-04-15T21:48:07.901Z,100947.91
2023-04-15T21:50:52.309Z,100946.09
2023-04-15T21:53:36.108Z,100952.91
2023-04-15T21:56:21.704Z,100965.38
2023-04-15T21:59:05.451Z,100966.41
2023-04-15T22:01:49.250Z,100955.31
2023-04-15T22:04:33.011Z,100975.38
2023-04-15T22:07:16.640Z,100956.94
2023-04-15T22:10:00.924Z,100963.78
2023-04-15T22:12:44.701Z,100970.53
2023-04-15T22:15:28.856Z,100973.59
2023-04-15T22:18:13.464Z,100975.53
2023-04-15T22:20:57.203Z,100975.84
2023-04-15T22:23:41.074Z,100974.38
2023-04-15T22:26:24.954Z,100982.38
2023-04-15T22:29:11.144Z,100989.66
2023-04-15T22:31:54.944Z,100991.72
2023-04-15T22:34:38.647Z,100997.19
2023-04-15T22:37:22.291Z,101000.25
2023-04-15T22:40:06.668Z,101019.50
2023-04-15T22:42:50.478Z,101016.16
2023-04-15T22:45:34.023Z,101016.16
2023-04-15T22:48:19.000Z,101014.09
2023-04-15T22:51:05.315Z,101025.16
2023-04-15T22:53:49.708Z,101023.03
2023-04-15T22:56:33.254Z,101035.22
2023-04-15T22:59:16.912Z,101018.78
2023-04-15T23:02:01.027Z,101025.50
2023-04-15T23:04:45.446Z,101036.72
2023-04-15T23:07:29.093Z,101022.81
2023-04-15T23:10:12.726Z,101029.03
2023-04-15T23:12:56.325Z,101025.78
2023-04-15T23:15:40.166Z,101038.63
2023-04-15T23:18:23.908Z,101022.69
2023-04-15T23:21:07.421Z,101024.94
2023-04-15T23:23:51.261Z,101025.44
2023-04-15T23:26:34.789Z,101025.38
2023-04-15T23:29:18.342Z,101024.16
2023-04-15T23:32:02.192Z,101039.25
2023-04-15T23:34:45.813Z,101034.09
2023-04-15T23:37:34.044Z,101024.94
2023-04-15T23:40:17.777Z,101031.34
2023-04-15T23:43:01.481Z,101025.91
2023-04-15T23:45:45.070Z,101025.03
2023-04-15T23:48:30.274Z,101026.72
2023-04-15T23:51:14.127Z,101033.25
2023-04-15T23:53:57.744Z,101042.50
2023-04-15T23:56:41.274Z,101048.63
2023-04-15T23:59:24.845Z,101055.25
